createdAt,value
2017-10-12T00:01:55.910Z,12.80
2017-10-12T00:04:24.174Z,12.80
2017-10-12T00:06:52.422Z,12.80
2017-10-12T00:09:20.662Z,12.90
2017-10-12T00:11:49.754Z,12.90
2017-10-12T00:14:18.767Z,12.90
2017-10-12T00:16:47.004Z,12.90
2017-10-12T00:19:15.267Z,12.80
2017-10-12T00:21:43.879Z,12.80
2017-10-12T00:24:12.873Z,12.80
2017-10-12T00:26:41.910Z,12.90
2017-10-12T00:29:10.150Z,12.90
2017-10-12T00:31:39.161Z,12.90
2017-10-12T00:34:07.814Z,12.90
2017-10-12T00:36:36.056Z,12.80
2017-10-12T00:39:04.296Z,12.80
2017-10-12T00:41:32.553Z,12.70
2017-10-12T00:44:01.567Z,12.50
2017-10-12T00:46:29.813Z,12.50
2017-10-12T00:48:58.846Z,12.50
2017-10-12T00:51:27.085Z,12.50
2017-10-12T00:53:55.330Z,12.40
2017-10-12T00:56:23.998Z,12.40
2017-10-12T00:58:52.245Z,12.30
2017-10-12T01:01:20.478Z,12.30
2017-10-12T01:03:48.746Z,12.30
2017-10-12T01:06:17.124Z,12.30
2017-10-12T01:08:45.364Z,12.20
2017-10-12T01:11:13.637Z,12.20
2017-10-12T01:13:41.886Z,12.10
2017-10-12T01:16:10.138Z,12.10
2017-10-12T01:18:38.797Z,12.00
2017-10-12T01:21:07.042Z,12.00
2017-10-12T01:23:35.520Z,12.00
2017-10-12T01:26:04.546Z,12.00
2017-10-12T01:28:32.786Z,11.90
2017-10-12T01:31:01.794Z,11.90
2017-10-12T01:33:30.066Z,11.90
2017-10-12T01:35:58.315Z,11.90
2017-10-12T01:38:26.568Z,11.90
2017-10-12T01:40:55.131Z,11.90
2017-10-12T01:43:23.362Z,11.90
2017-10-12T01:45:51.610Z,11.90
2017-10-12T01:48:31.722Z,11.80
2017-10-12T01:50:59.973Z,11.80
2017-10-12T01:53:28.982Z,11.80
2017-10-12T01:55:57.690Z,11.70
2017-10-12T01:58:25.943Z,11.70
2017-10-12T02:00:54.946Z,11.70
2017-10-12T02:03:23.230Z,11.70
2017-10-12T02:05:51.526Z,11.70
2017-10-12T02:08:19.775Z,11.70
2017-10-12T02:10:48.048Z,11.60
2017-10-12T02:13:16.304Z,11.60
2017-10-12T02:15:45.326Z,11.60
2017-10-12T02:18:13.694Z,11.60
2017-10-12T02:20:41.946Z,11.60
2017-10-12T02:23:10.193Z,11.70
2017-10-12T02:25:38.571Z,11.70
2017-10-12T02:28:06.827Z,11.60
2017-10-12T02:30:35.073Z,11.60
2017-10-12T02:33:03.359Z,11.60
2017-10-12T02:35:31.686Z,11.50
2017-10-12T02:37:59.947Z,11.50
2017-10-12T02:40:28.825Z,11.50
2017-10-12T02:42:57.065Z,11.50
2017-10-12T02:45:26.078Z,11.50
2017-10-12T02:47:54.354Z,11.50
2017-10-12T02:50:22.610Z,11.50
2017-10-12T02:52:51.630Z,11.40
2017-10-12T02:55:19.906Z,11.40
2017-10-12T02:57:48.154Z,11.40
2017-10-12T03:00:16.402Z,11.40
2017-10-12T03:02:44.734Z,11.50
2017-10-12T03:05:12.977Z,11.40
2017-10-12T03:07:41.241Z,11.40
2017-10-12T03:10:09.518Z,11.40
2017-10-12T03:12:37.771Z,11.40
2017-10-12T03:15:06.018Z,11.30
2017-10-12T03:17:34.295Z,11.30
2017-10-12T03:20:02.542Z,11.30
2017-10-12T03:22:31.566Z,11.30
2017-10-12T03:25:00.268Z,11.30
2017-10-12T03:27:28.914Z,11.30
2017-10-12T03:29:57.935Z,11.30
2017-10-12T03:32:26.206Z,11.30
2017-10-12T03:34:54.463Z,11.30
2017-10-12T03:37:22.705Z,11.30
2017-10-12T03:39:50.982Z,11.30
2017-10-12T03:42:19.349Z,11.30
2017-10-12T03:44:47.581Z,11.40
2017-10-12T03:47:16.255Z,11.40
2017-10-12T03:49:45.269Z,11.40
2017-10-12T03:52:13.522Z,11.40
2017-10-12T03:54:41.798Z,11.40
2017-10-12T03:57:10.050Z,11.50
2017-10-12T03:59:38.289Z,11.50
2017-10-12T04:02:06.574Z,11.50
2017-10-12T04:04:34.814Z,11.50
2017-10-12T04:07:03.285Z,11.50
2017-10-12T04:09:32.373Z,11.50
2017-10-12T04:12:00.619Z,11.50
2017-10-12T04:14:29.626Z,11.50
2017-10-12T04:16:57.898Z,11.50
2017-10-12T04:19:26.146Z,11.50
2017-10-12T04:21:54.399Z,11.60
2017-10-12T04:24:22.669Z,11.60
2017-10-12T04:26:50.914Z,11.70
2017-10-12T04:29:19.390Z,11.70
2017-10-12T04:31:48.043Z,11.70
2017-10-12T04:34:16.279Z,11.70
2017-10-12T04:36:44.522Z,11.70
2017-10-12T04:41:47.809Z,11.80
2017-10-12T04:44:16.066Z,11.80
2017-10-12T04:46:44.391Z,11.90
2017-10-12T04:49:12.665Z,11.90
2017-10-12T04:51:40.970Z,12.00
2017-10-12T04:54:09.209Z,12.20
2017-10-12T04:56:37.460Z,12.40
2017-10-12T04:59:05.726Z,12.50
2017-10-12T05:01:33.965Z,12.70
2017-10-12T05:04:02.214Z,12.90
2017-10-12T05:06:30.478Z,13.00
2017-10-12T05:08:58.722Z,13.00
2017-10-12T05:11:26.962Z,13.00
2017-10-12T05:13:55.282Z,13.10
2017-10-12T05:16:23.528Z,13.10
2017-10-12T05:18:51.770Z,13.10
2017-10-12T05:21:20.058Z,13.10
2017-10-12T05:23:48.296Z,13.10
2017-10-12T05:26:16.579Z,13.10
2017-10-12T05:28:44.822Z,13.20
2017-10-12T05:31:14.318Z,13.20
2017-10-12T05:33:43.319Z,13.20
2017-10-12T05:36:12.609Z,13.30
2017-10-12T05:38:41.614Z,13.40
2017-10-12T05:41:10.622Z,13.50
2017-10-12T05:43:38.895Z,13.50
2017-10-12T05:46:07.141Z,13.70
2017-10-12T05:48:35.382Z,13.70
2017-10-12T05:51:03.661Z,13.70
2017-10-12T05:53:31.909Z,13.70
2017-10-12T05:56:00.147Z,13.60
2017-10-12T05:58:28.700Z,13.70
2017-10-12T06:00:56.944Z,13.80
2017-10-12T06:03:25.182Z,13.90
2017-10-12T06:05:53.446Z,14.00
2017-10-12T06:08:21.690Z,14.00
2017-10-12T06:10:49.935Z,14.00
2017-10-12T06:13:19.736Z,14.00
2017-10-12T06:15:47.976Z,14.00
2017-10-12T06:18:16.213Z,14.00
2017-10-12T06:20:44.541Z,14.10
2017-10-12T06:23:12.786Z,14.20
2017-10-12T06:25:41.030Z,14.20
2017-10-12T06:28:10.059Z,14.20
2017-10-12T06:30:38.302Z,14.20
2017-10-12T06:33:06.878Z,14.20
2017-10-12T06:35:35.910Z,14.30
2017-10-12T06:38:04.150Z,14.20
2017-10-12T06:40:33.157Z,14.30
2017-10-12T06:43:01.753Z,14.20
2017-10-12T06:45:29.993Z,14.30
2017-10-12T06:47:58.997Z,14.40
2017-10-12T06:50:28.030Z,14.40
2017-10-12T06:52:56.270Z,14.40
2017-10-12T06:55:25.319Z,14.60
2017-10-12T06:57:53.562Z,14.50
2017-10-12T07:00:21.979Z,14.60
2017-10-12T07:02:50.209Z,14.60
2017-10-12T07:05:18.870Z,14.70
2017-10-12T07:07:47.875Z,14.70
2017-10-12T07:10:16.886Z,14.60
2017-10-12T07:12:45.149Z,14.60
2017-10-12T07:15:14.162Z,14.70
2017-10-12T07:17:42.407Z,14.70
2017-10-12T07:20:10.673Z,14.70
2017-10-12T07:22:38.906Z,14.80
2017-10-12T07:25:07.160Z,14.90
2017-10-12T07:27:35.991Z,15.00
2017-10-12T07:30:04.228Z,15.00
2017-10-12T07:32:32.466Z,15.10
2017-10-12T07:35:00.984Z,15.20
2017-10-12T07:37:29.223Z,15.20
2017-10-12T07:39:57.462Z,15.20
2017-10-12T07:42:25.726Z,15.20
2017-10-12T07:44:53.974Z,15.20
2017-10-12T07:47:22.981Z,15.40
2017-10-12T07:49:51.946Z,15.40
2017-10-12T07:52:20.193Z,15.50
2017-10-12T07:54:48.441Z,15.50
2017-10-12T07:57:16.706Z,15.60
2017-10-12T07:59:44.962Z,15.60
2017-10-12T08:02:13.975Z,15.70
2017-10-12T08:04:42.236Z,15.70
2017-10-12T08:07:10.474Z,15.70
2017-10-12T08:09:38.761Z,15.60
2017-10-12T08:12:07.102Z,15.60
2017-10-12T08:14:35.340Z,15.70
2017-10-12T08:17:04.345Z,16.00
2017-10-12T08:19:32.609Z,16.00
2017-10-12T08:22:01.623Z,16.30
2017-10-12T08:24:29.862Z,16.30
2017-10-12T08:26:58.126Z,16.30
2017-10-12T08:29:26.370Z,16.30
2017-10-12T08:31:54.610Z,16.30
2017-10-12T08:34:23.819Z,16.30
2017-10-12T08:36:52.953Z,16.30
2017-10-12T08:39:21.206Z,16.30
2017-10-12T08:41:50.002Z,16.40
2017-10-12T08:44:18.370Z,16.50
2017-10-12T08:46:46.613Z,16.50
2017-10-12T08:49:14.884Z,16.60
2017-10-12T08:51:43.130Z,16.70
2017-10-12T08:54:11.374Z,16.70
2017-10-12T08:56:40.291Z,16.70
2017-10-12T08:59:08.541Z,16.80
2017-10-12T09:01:36.779Z,16.80
2017-10-12T09:04:05.090Z,16.80
2017-10-12T09:06:33.330Z,16.80
2017-10-12T09:09:01.570Z,16.70
2017-10-12T09:11:29.838Z,16.70
2017-10-12T09:13:58.078Z,16.70
2017-10-12T09:16:27.087Z,16.90
2017-10-12T09:18:55.698Z,16.90
2017-10-12T09:21:23.937Z,17.00
2017-10-12T09:23:52.944Z,17.10
2017-10-12T09:26:23.694Z,17.00
2017-10-12T09:28:51.937Z,17.10
2017-10-12T09:31:20.182Z,17.20
2017-10-12T09:33:48.451Z,17.20
2017-10-12T09:36:16.690Z,17.20
2017-10-12T09:38:45.146Z,17.20
2017-10-12T09:41:13.502Z,17.20
2017-10-12T09:43:41.766Z,17.20
2017-10-12T09:46:10.766Z,17.20
2017-10-12T09:48:39.042Z,17.20
2017-10-12T09:51:07.286Z,17.20
2017-10-12T09:53:35.528Z,17.20
2017-10-12T09:56:04.714Z,17.30
2017-10-12T09:58:32.962Z,17.30
2017-10-12T10:01:01.195Z,17.40
2017-10-12T10:03:29.901Z,17.40
2017-10-12T10:05:58.140Z,17.40
2017-10-12T10:08:27.158Z,17.30
2017-10-12T10:10:55.425Z,17.20
2017-10-12T10:13:23.671Z,17.30
2017-10-12T10:15:51.908Z,17.50
2017-10-12T10:18:20.242Z,18.00
2017-10-12T10:20:48.486Z,18.70
2017-10-12T10:23:16.730Z,19.00
2017-10-12T10:25:45.313Z,18.90
2017-10-12T10:28:13.589Z,18.80
2017-10-12T10:30:41.821Z,18.60
2017-10-12T10:33:10.087Z,18.40
2017-10-12T10:35:38.335Z,18.70
2017-10-12T10:38:06.579Z,19.40
2017-10-12T10:40:35.038Z,19.50
2017-10-12T10:43:04.046Z,19.30
2017-10-12T10:45:32.293Z,19.20
2017-10-12T10:48:00.809Z,19.10
2017-10-12T10:50:29.120Z,18.90
2017-10-12T10:52:57.369Z,18.70
2017-10-12T10:55:25.906Z,18.50
2017-10-12T10:57:54.129Z,18.40
2017-10-12T11:00:22.377Z,18.30
2017-10-12T11:02:51.571Z,18.10
2017-10-12T11:05:20.574Z,18.10
2017-10-12T11:07:49.578Z,18.10
2017-10-12T11:10:17.895Z,18.10
2017-10-12T11:12:46.135Z,18.10
2017-10-12T11:15:14.564Z,18.40
2017-10-12T11:17:42.811Z,18.80
2017-10-12T11:20:11.051Z,18.80
2017-10-12T11:22:39.293Z,18.70
2017-10-12T11:25:07.578Z,18.80
2017-10-12T11:27:35.840Z,18.90
2017-10-12T11:30:04.082Z,18.90
2017-10-12T11:32:32.907Z,19.00
2017-10-12T11:35:01.156Z,19.20
2017-10-12T11:37:29.401Z,19.90
2017-10-12T11:39:57.666Z,20.80
2017-10-12T11:42:26.077Z,21.60
2017-10-12T11:44:54.335Z,22.00
2017-10-12T11:47:23.367Z,23.10
2017-10-12T11:49:51.657Z,23.00
2017-10-12T11:52:20.978Z,23.30
2017-10-12T11:54:49.306Z,23.20
2017-10-12T11:57:17.561Z,23.20
2017-10-12T11:59:45.802Z,23.00
2017-10-12T12:02:14.058Z,22.80
2017-10-12T12:04:42.676Z,22.60
2017-10-12T12:07:10.914Z,22.60
2017-10-12T12:09:39.184Z,22.70
2017-10-12T12:12:07.426Z,22.70
2017-10-12T12:14:36.439Z,21.90
2017-10-12T12:17:05.152Z,21.90
2017-10-12T12:19:33.402Z,21.80
2017-10-12T12:22:01.639Z,21.90
2017-10-12T12:24:29.902Z,22.00
2017-10-12T12:26:58.149Z,22.20
2017-10-12T12:29:26.382Z,22.20
2017-10-12T12:31:55.425Z,22.40
2017-10-12T12:34:23.681Z,22.40
2017-10-12T12:36:51.930Z,22.40
2017-10-12T12:39:20.574Z,22.50
2017-10-12T12:41:48.854Z,22.50
2017-10-12T12:44:17.098Z,22.50
2017-10-12T12:46:45.374Z,22.30
2017-10-12T12:49:13.618Z,22.10
2017-10-12T12:51:41.881Z,22.20
2017-10-12T12:54:10.147Z,22.60
2017-10-12T12:56:38.394Z,23.10
2017-10-12T12:59:06.637Z,23.30
2017-10-12T13:01:36.052Z,23.90
2017-10-12T13:04:04.275Z,23.90
2017-10-12T13:06:32.535Z,23.90
2017-10-12T13:09:00.795Z,23.90
2017-10-12T13:11:29.035Z,23.90
2017-10-12T13:13:57.278Z,24.10
2017-10-12T13:16:25.612Z,24.70
2017-10-12T13:18:54.611Z,24.90
2017-10-12T13:21:22.850Z,24.90
2017-10-12T13:23:51.474Z,24.90
2017-10-12T13:26:19.718Z,24.60
2017-10-12T13:28:48.726Z,25.00
2017-10-12T13:31:16.998Z,25.00
2017-10-12T13:33:45.238Z,24.70
2017-10-12T13:36:13.496Z,24.30
2017-10-12T13:38:41.927Z,23.90
2017-10-12T13:41:12.114Z,22.70
2017-10-12T13:43:40.498Z,22.70
2017-10-12T13:46:08.824Z,22.50
2017-10-12T13:48:37.282Z,22.70
2017-10-12T13:51:06.296Z,22.90
2017-10-12T13:53:34.562Z,22.90
2017-10-12T13:56:02.819Z,22.80
2017-10-12T13:58:31.082Z,22.70
2017-10-12T14:00:59.476Z,22.70
2017-10-12T14:03:27.730Z,22.70
2017-10-12T14:05:55.982Z,22.60
2017-10-12T14:08:24.676Z,22.50
2017-10-12T14:10:52.918Z,22.80
2017-10-12T14:13:21.190Z,23.10
2017-10-12T14:15:49.454Z,23.00
2017-10-12T14:18:18.613Z,22.80
2017-10-12T14:20:46.830Z,22.70
2017-10-12T14:23:15.866Z,22.50
2017-10-12T14:25:44.122Z,22.50
2017-10-12T14:28:12.378Z,22.30
2017-10-12T14:30:41.477Z,22.10
2017-10-12T14:33:09.727Z,22.10
2017-10-12T14:35:38.007Z,22.00
2017-10-12T14:38:06.747Z,21.90
2017-10-12T14:40:35.005Z,21.80
2017-10-12T14:43:03.441Z,21.80
2017-10-12T14:45:31.713Z,21.80
2017-10-12T14:47:59.979Z,21.60
2017-10-12T14:50:28.273Z,21.60
2017-10-12T14:52:56.718Z,21.50
2017-10-12T14:55:25.220Z,21.50
2017-10-12T14:57:53.446Z,21.50
2017-10-12T15:00:22.482Z,21.50
2017-10-12T15:02:50.805Z,21.50
2017-10-12T15:05:19.835Z,21.50
2017-10-12T15:07:48.139Z,21.50
2017-10-12T15:10:16.380Z,21.50
2017-10-12T15:12:44.624Z,21.40
2017-10-12T15:15:13.378Z,21.50
2017-10-12T15:17:41.758Z,21.60
2017-10-12T15:20:10.977Z,21.50
2017-10-12T15:22:39.377Z,21.30
2017-10-12T15:25:08.383Z,20.80
2017-10-12T15:27:36.630Z,20.80
2017-10-12T15:30:04.890Z,20.60
2017-10-12T15:32:33.206Z,20.40
2017-10-12T15:35:02.211Z,20.40
2017-10-12T15:37:30.713Z,20.40
2017-10-12T15:39:58.966Z,20.30
2017-10-12T15:42:30.076Z,20.20
2017-10-12T15:44:58.596Z,20.20
2017-10-12T15:47:28.365Z,20.20
2017-10-12T15:50:00.756Z,20.10
2017-10-12T15:52:29.102Z,20.00
2017-10-12T15:54:57.490Z,19.90
2017-10-12T15:57:26.050Z,19.80
2017-10-12T15:59:55.560Z,19.70
2017-10-12T16:02:25.394Z,19.70
2017-10-12T16:04:54.181Z,19.50
2017-10-12T16:07:23.191Z,19.50
2017-10-12T16:10:00.788Z,19.40
2017-10-12T16:12:30.985Z,19.30
2017-10-12T16:14:59.998Z,19.30
2017-10-12T16:17:28.679Z,19.30
2017-10-12T16:19:59.119Z,19.20
2017-10-12T16:27:25.462Z,19.00
2017-10-12T16:29:54.039Z,18.90
2017-10-12T16:32:22.271Z,18.80
2017-10-12T16:34:51.523Z,18.70
2017-10-12T16:37:20.099Z,18.70
2017-10-12T16:39:49.466Z,18.60
2017-10-12T16:42:17.959Z,18.50
2017-10-12T16:44:46.449Z,18.40
2017-10-12T16:47:18.882Z,18.40
2017-10-12T16:49:47.485Z,18.40
2017-10-12T16:52:16.604Z,18.30
2017-10-12T16:54:45.445Z,18.20
2017-10-12T16:57:13.758Z,18.20
2017-10-12T16:59:42.993Z,18.10
2017-10-12T17:02:11.382Z,18.10
2017-10-12T17:04:39.797Z,18.10
2017-10-12T17:07:09.976Z,18.00
2017-10-12T17:09:38.428Z,18.00
2017-10-12T17:12:06.778Z,17.90
2017-10-12T17:14:35.790Z,17.90
2017-10-12T17:17:04.122Z,17.80
2017-10-12T17:19:32.582Z,17.80
2017-10-12T17:22:00.884Z,17.70
2017-10-12T17:24:29.242Z,17.70
2017-10-12T17:26:57.648Z,17.70
2017-10-12T17:29:26.651Z,17.50
2017-10-12T17:31:55.918Z,17.50
2017-10-12T17:34:24.803Z,17.50
2017-10-12T17:36:54.205Z,17.40
2017-10-12T17:39:22.758Z,17.30
2017-10-12T17:41:52.295Z,17.20
2017-10-12T17:44:22.720Z,17.10
2017-10-12T17:46:51.303Z,17.00
2017-10-12T17:49:26.963Z,17.00
2017-10-12T17:51:55.202Z,16.90
2017-10-12T17:54:39.512Z,16.90
2017-10-12T17:56:54.922Z,16.80
2017-10-12T17:59:24.370Z,16.80
2017-10-12T18:01:52.786Z,16.70
2017-10-12T18:06:51.044Z,16.60
2017-10-12T18:09:19.435Z,16.60
2017-10-12T18:14:16.844Z,16.50
2017-10-12T18:16:45.096Z,16.50
2017-10-12T18:19:14.355Z,16.40
2017-10-12T18:21:42.593Z,16.40
2017-10-12T18:24:11.855Z,16.40
2017-10-12T18:26:42.098Z,16.40
2017-10-12T18:29:13.318Z,16.30
2017-10-12T18:31:41.597Z,16.30
2017-10-12T18:34:10.930Z,16.30
2017-10-12T18:36:39.948Z,16.20
2017-10-12T18:39:08.720Z,16.20
2017-10-12T18:41:37.535Z,16.20
2017-10-12T18:44:05.954Z,16.20
2017-10-12T18:46:34.323Z,16.40
2017-10-12T18:49:02.928Z,16.40
2017-10-12T18:51:31.686Z,16.40
2017-10-12T18:54:00.079Z,16.40
2017-10-12T18:56:28.511Z,16.40
2017-10-12T18:58:57.744Z,16.40
2017-10-12T19:01:26.126Z,16.30
2017-10-12T19:03:54.726Z,16.40
2017-10-12T19:06:23.839Z,16.50
2017-10-12T19:08:54.039Z,16.50
2017-10-12T19:11:22.455Z,16.50
2017-10-12T19:13:52.024Z,16.30
2017-10-12T19:16:20.510Z,16.30
2017-10-12T19:18:49.028Z,16.30
2017-10-12T19:21:17.514Z,16.30
2017-10-12T19:23:46.622Z,16.20
2017-10-12T19:26:16.174Z,16.20
2017-10-12T19:28:44.552Z,16.10
2017-10-12T19:31:12.816Z,16.10
2017-10-12T19:33:41.296Z,16.10
2017-10-12T19:36:09.620Z,16.00
2017-10-12T19:38:39.083Z,16.00
2017-10-12T19:43:37.807Z,15.90
2017-10-12T19:46:06.195Z,15.90
2017-10-12T19:48:34.806Z,15.90
2017-10-12T19:53:31.621Z,15.90
2017-10-12T19:56:00.024Z,15.90
2017-10-12T19:58:28.384Z,15.90
2017-10-12T20:00:56.648Z,15.80
2017-10-12T20:03:26.095Z,15.70
2017-10-12T20:05:54.434Z,15.60
2017-10-12T20:08:28.777Z,15.50
2017-10-12T20:10:59.189Z,15.50
2017-10-12T20:13:29.430Z,15.40
2017-10-12T20:16:00.578Z,15.30
2017-10-12T20:18:28.928Z,15.30
2017-10-12T20:20:57.343Z,15.30
2017-10-12T20:23:25.706Z,15.30
2017-10-12T20:25:54.063Z,15.30
2017-10-12T20:28:22.520Z,15.30
2017-10-12T20:30:50.827Z,15.30
2017-10-12T20:33:19.201Z,15.20
2017-10-12T20:35:49.161Z,15.10
2017-10-12T20:38:17.495Z,15.10
2017-10-12T20:40:45.890Z,15.10
2017-10-12T20:43:14.275Z,15.00
2017-10-12T20:45:42.642Z,14.90
2017-10-12T20:48:11.066Z,14.90
2017-10-12T20:50:39.594Z,14.80
2017-10-12T20:53:08.387Z,14.80
2017-10-12T20:55:36.783Z,14.70
2017-10-12T20:58:05.830Z,14.70
2017-10-12T21:00:34.133Z,14.60
2017-10-12T21:03:02.519Z,14.60
2017-10-12T21:05:30.928Z,14.60
2017-10-12T21:08:01.115Z,14.50
2017-10-12T21:10:29.369Z,14.50
2017-10-12T21:12:57.973Z,14.40
2017-10-12T21:15:26.209Z,14.40
2017-10-12T21:17:54.476Z,14.40
2017-10-12T21:20:23.514Z,14.40
2017-10-12T21:22:51.754Z,14.30
2017-10-12T21:25:19.999Z,14.40
2017-10-12T21:27:51.550Z,14.40
2017-10-12T21:30:20.566Z,14.40
2017-10-12T21:32:50.599Z,14.60
2017-10-12T21:35:20.142Z,14.50
2017-10-12T21:37:48.392Z,14.80
2017-10-12T21:40:16.815Z,15.00
2017-10-12T21:42:45.082Z,15.00
2017-10-12T21:45:13.566Z,14.90
2017-10-12T21:47:41.817Z,14.80
2017-10-12T21:50:10.853Z,14.60
2017-10-12T21:52:39.878Z,14.50
2017-10-12T21:55:08.473Z,14.50
2017-10-12T21:57:37.066Z,14.50
2017-10-12T22:00:05.310Z,14.50
2017-10-12T22:02:33.561Z,14.50
2017-10-12T22:05:02.019Z,14.50
2017-10-12T22:07:30.243Z,14.40
2017-10-12T22:09:59.251Z,14.30
2017-10-12T22:12:27.529Z,14.30
2017-10-12T22:14:55.786Z,14.30
2017-10-12T22:17:24.800Z,14.20
2017-10-12T22:19:53.270Z,14.20
2017-10-12T22:22:21.529Z,14.10
2017-10-12T22:24:50.713Z,14.10
2017-10-12T22:27:19.278Z,14.00
2017-10-12T22:29:47.508Z,14.00
2017-10-12T22:32:15.750Z,13.90
2017-10-12T22:34:44.018Z,13.90
2017-10-12T22:37:12.266Z,13.90
2017-10-12T22:39:40.510Z,13.90
2017-10-12T22:42:09.240Z,13.90
2017-10-12T22:44:37.624Z,13.90
2017-10-12T22:47:05.871Z,13.90
2017-10-12T22:49:34.135Z,13.90
2017-10-12T22:52:02.390Z,13.90
2017-10-12T22:54:30.634Z,13.90
2017-10-12T22:56:59.071Z,13.90
2017-10-12T22:59:27.314Z,13.90
2017-10-12T23:01:56.330Z,14.00
2017-10-12T23:04:24.843Z,14.00
2017-10-12T23:06:53.102Z,14.10
2017-10-12T23:09:21.373Z,14.10
2017-10-12T23:11:49.638Z,14.10
2017-10-12T23:14:17.886Z,14.20
2017-10-12T23:16:46.136Z,14.40
2017-10-12T23:19:14.445Z,14.30
2017-10-12T23:21:42.679Z,14.30
2017-10-12T23:24:10.973Z,14.20
2017-10-12T23:26:39.393Z,14.10
2017-10-12T23:29:07.642Z,14.00
2017-10-12T23:31:35.890Z,14.00
2017-10-12T23:34:04.166Z,13.90
2017-10-12T23:36:32.457Z,13.80
2017-10-12T23:39:00.682Z,13.70
2017-10-12T23:41:28.949Z,13.60
2017-10-12T23:43:57.972Z,13.40
2017-10-12T23:46:26.218Z,13.40
2017-10-12T23:48:54.746Z,13.40
2017-10-12T23:51:22.985Z,13.30
2017-10-12T23:53:51.996Z,13.20
2017-10-12T23:56:20.268Z,13.20
2017-10-12T23:58:48.893Z,13.10
